createdAt,value
2022-08-03T00:02:20.655Z,97359.59
2022-08-03T00:04:48.512Z,97352.31
2022-08-03T00:07:17.025Z,97353.50
2022-08-03T00:09:45.034Z,97350.32
2022-08-03T00:12:13.136Z,97348.96
2022-08-03T00:14:41.401Z,97350.06
2022-08-03T00:17:09.901Z,97349.20
2022-08-03T00:19:37.877Z,97353.33
2022-08-03T00:22:05.852Z,97359.89
2022-08-03T00:24:36.302Z,97361.07
2022-08-03T00:27:04.395Z,97360.77
2022-08-03T00:29:32.354Z,97361.20
2022-08-03T00:32:00.728Z,97364.52
2022-08-03T00:34:35.227Z,97364.11
2022-08-03T00:37:16.726Z,97363.82
2022-08-03T00:39:47.395Z,97357.19
2022-08-03T00:42:15.672Z,97360.03
2022-08-03T00:44:44.768Z,97365.45
2022-08-03T00:47:12.701Z,97363.55
2022-08-03T00:49:41.540Z,97365.05
2022-08-03T00:52:10.202Z,97362.45
2022-08-03T00:54:39.132Z,97368.92
2022-08-03T00:57:07.840Z,97370.10
2022-08-03T00:59:37.232Z,97369.52
2022-08-03T01:02:05.255Z,97364.33
2022-08-03T01:04:33.108Z,97361.98
2022-08-03T01:07:03.978Z,97361.88
2022-08-03T01:09:50.727Z,97362.58
2022-08-03T01:12:25.318Z,97363.42
2022-08-03T01:15:00.663Z,97365.22
2022-08-03T01:17:38.715Z,97366.29
2022-08-03T01:20:10.847Z,97363.47
2022-08-03T01:22:45.016Z,97363.99
2022-08-03T01:25:12.965Z,97363.85
2022-08-03T01:27:52.212Z,97362.68
2022-08-03T01:30:20.305Z,97362.70
2022-08-03T01:33:00.940Z,97359.75
2022-08-03T01:35:38.550Z,97358.70
2022-08-03T01:38:12.519Z,97355.50
2022-08-03T01:40:41.837Z,97359.27
2022-08-03T01:43:11.791Z,97362.41
2022-08-03T01:45:40.377Z,97363.08
2022-08-03T01:48:08.706Z,97363.92
2022-08-03T01:50:37.271Z,97360.66
2022-08-03T01:53:07.981Z,97359.54
2022-08-03T01:55:37.541Z,97357.30
2022-08-03T01:58:07.996Z,97358.98
2022-08-03T02:00:37.610Z,97358.92
2022-08-03T02:03:06.403Z,97356.27
2022-08-03T02:05:34.740Z,97353.25
2022-08-03T02:08:03.955Z,97351.69
2022-08-03T02:10:35.599Z,97347.77
2022-08-03T02:13:05.354Z,97350.88
2022-08-03T02:15:34.127Z,97350.27
2022-08-03T02:18:03.444Z,97348.86
2022-08-03T02:20:33.352Z,97355.56
2022-08-03T02:23:01.347Z,97351.38
2022-08-03T02:25:30.509Z,97353.52
2022-08-03T02:28:01.228Z,97350.30
2022-08-03T02:30:38.790Z,97350.41
2022-08-03T02:33:17.514Z,97352.89
2022-08-03T02:35:47.020Z,97352.13
2022-08-03T02:38:17.013Z,97349.42
2022-08-03T02:40:45.257Z,97346.71
2022-08-03T02:43:18.337Z,97342.48
2022-08-03T02:45:48.341Z,97344.45
2022-08-03T02:48:17.834Z,97343.67
2022-08-03T02:50:46.522Z,97345.67
2022-08-03T02:53:16.842Z,97345.27
2022-08-03T02:55:46.649Z,97343.08
2022-08-03T02:58:14.917Z,97345.19
2022-08-03T03:00:44.244Z,97347.95
2022-08-03T03:03:12.993Z,97350.02
2022-08-03T03:05:52.241Z,97354.63
2022-08-03T03:08:26.157Z,97359.23
2022-08-03T03:10:58.927Z,97354.15
2022-08-03T03:13:28.488Z,97353.30
2022-08-03T03:15:57.848Z,97348.45
2022-08-03T03:18:27.910Z,97348.66
2022-08-03T03:20:56.574Z,97349.13
2022-08-03T03:23:25.302Z,97349.75
2022-08-03T03:25:53.840Z,97354.61
2022-08-03T03:28:22.591Z,97357.59
2022-08-03T03:30:53.407Z,97361.00
2022-08-03T03:33:22.381Z,97362.58
2022-08-03T03:35:51.909Z,97365.33
2022-08-03T03:38:20.271Z,97365.06
2022-08-03T03:40:48.377Z,97367.84
2022-08-03T03:43:18.870Z,97376.21
2022-08-03T03:45:47.756Z,97375.11
2022-08-03T03:48:15.989Z,97380.48
2022-08-03T03:50:43.984Z,97381.36
2022-08-03T03:53:12.543Z,97381.15
2022-08-03T03:55:59.019Z,97380.02
2022-08-03T03:58:29.219Z,97379.11
2022-08-03T04:00:57.301Z,97381.66
2022-08-03T04:03:25.266Z,97383.83
2022-08-03T04:06:11.508Z,97384.56
2022-08-03T04:08:59.225Z,97392.60
2022-08-03T04:11:40.935Z,97394.77
2022-08-03T04:14:15.054Z,97396.41
2022-08-03T04:16:45.827Z,97396.59
2022-08-03T04:19:33.935Z,97397.30
2022-08-03T04:22:04.404Z,97395.02
2022-08-03T04:24:38.934Z,97400.52
2022-08-03T04:27:09.408Z,97399.80
2022-08-03T04:29:48.087Z,97403.58
2022-08-03T04:32:20.538Z,97409.71
2022-08-03T04:34:48.471Z,97409.77
2022-08-03T04:37:23.292Z,97408.32
2022-08-03T04:39:52.466Z,97414.15
2022-08-03T04:42:25.988Z,97413.27
2022-08-03T04:45:00.444Z,97411.44
2022-08-03T04:47:31.222Z,97411.30
2022-08-03T04:50:00.567Z,97415.65
2022-08-03T04:52:28.709Z,97417.34
2022-08-03T04:54:57.046Z,97416.73
2022-08-03T04:57:24.962Z,97417.63
2022-08-03T05:00:01.401Z,97419.10
2022-08-03T05:02:31.357Z,97419.63
2022-08-03T05:04:59.635Z,97419.48
2022-08-03T05:07:36.248Z,97417.14
2022-08-03T05:10:05.730Z,97421.04
2022-08-03T05:12:43.684Z,97423.85
2022-08-03T05:15:12.099Z,97422.10
2022-08-03T05:17:40.356Z,97422.45
2022-08-03T05:20:08.828Z,97418.88
2022-08-03T05:22:36.709Z,97419.70
2022-08-03T05:25:04.904Z,97422.54
2022-08-03T05:27:32.789Z,97421.23
2022-08-03T05:30:31.253Z,97421.56
2022-08-03T05:32:48.806Z,97423.02
2022-08-03T05:35:55.843Z,97422.16
2022-08-03T05:38:05.092Z,97423.77
2022-08-03T05:40:33.868Z,97423.36
2022-08-03T05:43:02.201Z,97423.86
2022-08-03T05:45:30.097Z,97427.63
2022-08-03T05:47:57.959Z,97429.50
2022-08-03T05:50:25.980Z,97432.35
2022-08-03T05:52:56.032Z,97437.29
2022-08-03T05:55:24.206Z,97437.02
2022-08-03T05:57:52.070Z,97442.92
2022-08-03T06:00:23.308Z,97437.48
2022-08-03T06:02:53.632Z,97440.30
2022-08-03T06:05:21.614Z,97441.88
2022-08-03T06:07:49.616Z,97441.71
2022-08-03T06:10:36.725Z,97443.00
2022-08-03T06:13:05.386Z,97440.84
2022-08-03T06:15:35.585Z,97445.11
2022-08-03T06:18:03.479Z,97450.34
2022-08-03T06:20:31.429Z,97449.53
2022-08-03T06:23:00.990Z,97449.50
2022-08-03T06:25:29.447Z,97446.27
2022-08-03T06:27:57.376Z,97441.64
2022-08-03T06:30:25.723Z,97445.30
2022-08-03T06:32:53.721Z,97447.06
2022-08-03T06:35:21.669Z,97444.67
2022-08-03T06:37:50.700Z,97444.73
2022-08-03T06:40:24.341Z,97446.31
2022-08-03T06:42:53.020Z,97443.66
2022-08-03T06:45:22.148Z,97441.45
2022-08-03T06:48:00.260Z,97442.59
2022-08-03T06:50:28.413Z,97442.05
2022-08-03T06:52:56.367Z,97439.77
2022-08-03T06:55:24.716Z,97438.83
2022-08-03T06:57:52.652Z,97439.90
2022-08-03T07:00:20.897Z,97439.39
2022-08-03T07:02:49.347Z,97437.72
2022-08-03T07:05:20.729Z,97436.29
2022-08-03T07:07:49.430Z,97432.64
2022-08-03T07:10:17.384Z,97428.87
2022-08-03T07:12:55.786Z,97431.42
2022-08-03T07:15:53.921Z,97424.35
2022-08-03T07:18:12.952Z,97424.08
2022-08-03T07:20:41.136Z,97425.85
2022-08-03T07:23:10.074Z,97424.89
2022-08-03T07:25:43.985Z,97430.08
2022-08-03T07:28:12.013Z,97425.24
2022-08-03T07:30:39.910Z,97429.54
2022-08-03T07:33:07.923Z,97429.52
2022-08-03T07:35:35.838Z,97429.48
2022-08-03T07:38:03.699Z,97429.65
2022-08-03T07:40:32.143Z,97431.45
2022-08-03T07:43:00.573Z,97431.16
2022-08-03T07:45:29.378Z,97430.39
2022-08-03T07:47:57.461Z,97432.82
2022-08-03T07:50:25.508Z,97432.68
2022-08-03T07:52:54.266Z,97434.80
2022-08-03T07:55:23.235Z,97434.27
2022-08-03T07:58:12.516Z,97435.46
2022-08-03T08:00:40.591Z,97438.55
2022-08-03T08:03:08.959Z,97432.77
2022-08-03T08:05:37.153Z,97437.84
2022-08-03T08:08:05.315Z,97433.28
2022-08-03T08:10:33.252Z,97431.47
2022-08-03T08:13:02.151Z,97429.27
2022-08-03T08:15:30.212Z,97428.14
2022-08-03T08:17:59.542Z,97429.40
2022-08-03T08:20:31.317Z,97425.73
2022-08-03T08:23:01.532Z,97431.89
2022-08-03T08:25:31.034Z,97430.73
2022-08-03T08:28:29.876Z,97432.06
2022-08-03T08:30:51.147Z,97432.19
2022-08-03T08:33:22.536Z,97431.12
2022-08-03T08:35:53.619Z,97430.70
2022-08-03T08:38:22.018Z,97427.62
2022-08-03T08:40:50.763Z,97428.13
2022-08-03T08:43:18.683Z,97431.52
2022-08-03T08:45:47.912Z,97433.10
2022-08-03T08:48:17.920Z,97431.09
2022-08-03T08:50:45.987Z,97427.54
2022-08-03T08:53:17.350Z,97427.32
2022-08-03T08:55:57.904Z,97425.36
2022-08-03T08:58:34.748Z,97420.05
2022-08-03T09:01:03.087Z,97422.08
2022-08-03T09:03:34.519Z,97426.23
2022-08-03T09:06:02.886Z,97424.29
2022-08-03T09:08:31.949Z,97428.64
2022-08-03T09:10:59.989Z,97427.02
2022-08-03T09:13:29.308Z,97423.70
2022-08-03T09:16:09.623Z,97423.95
2022-08-03T09:18:37.868Z,97421.54
2022-08-03T09:21:34.449Z,97417.84
2022-08-03T09:24:06.199Z,97427.77
2022-08-03T09:26:35.917Z,97427.33
2022-08-03T09:29:13.792Z,97425.77
2022-08-03T09:31:47.058Z,97419.91
2022-08-03T09:34:16.563Z,97418.21
2022-08-03T09:36:49.466Z,97414.59
2022-08-03T09:39:18.677Z,97418.83
2022-08-03T09:41:48.576Z,97415.64
2022-08-03T09:44:25.119Z,97412.08
2022-08-03T09:46:56.447Z,97413.05
2022-08-03T09:49:25.287Z,97409.10
2022-08-03T09:52:37.637Z,97406.35
2022-08-03T09:54:42.511Z,97396.92
2022-08-03T09:57:26.254Z,97397.30
2022-08-03T10:00:04.654Z,97399.98
2022-08-03T10:02:40.898Z,97398.87
2022-08-03T10:05:09.924Z,97397.96
2022-08-03T10:07:47.257Z,97398.31
2022-08-03T10:10:30.938Z,97401.96
2022-08-03T10:13:00.369Z,97401.59
2022-08-03T10:16:23.069Z,97399.05
2022-08-03T10:18:16.593Z,97399.02
2022-08-03T10:20:46.898Z,97392.68
2022-08-03T10:23:17.380Z,97395.63
2022-08-03T10:25:49.766Z,97391.67
2022-08-03T10:28:19.468Z,97390.09
2022-08-03T10:30:53.037Z,97388.25
2022-08-03T10:33:50.869Z,97387.77
2022-08-03T10:36:16.804Z,97383.81
2022-08-03T10:38:47.514Z,97385.80
2022-08-03T10:41:18.744Z,97384.39
2022-08-03T10:44:06.953Z,97384.30
2022-08-03T10:46:36.208Z,97376.49
2022-08-03T10:49:05.664Z,97372.98
2022-08-03T10:51:34.216Z,97377.55
2022-08-03T10:54:02.321Z,97374.39
2022-08-03T10:56:51.819Z,97375.71
2022-08-03T10:59:38.549Z,97371.75
2022-08-03T11:02:10.134Z,97371.59
2022-08-03T11:04:38.301Z,97370.57
2022-08-03T11:07:22.816Z,97365.48
2022-08-03T11:09:55.377Z,97369.39
2022-08-03T11:12:30.768Z,97365.09
2022-08-03T11:15:02.241Z,97365.38
2022-08-03T11:17:30.239Z,97364.30
2022-08-03T11:19:58.573Z,97361.14
2022-08-03T11:22:46.767Z,97360.28
2022-08-03T11:25:54.952Z,97360.08
2022-08-03T11:28:23.393Z,97352.89
2022-08-03T11:30:54.424Z,97352.45
2022-08-03T11:33:31.790Z,97352.85
2022-08-03T11:36:01.389Z,97348.11
2022-08-03T11:38:29.364Z,97343.89
2022-08-03T11:40:57.317Z,97341.70
2022-08-03T11:43:31.886Z,97336.96
2022-08-03T11:46:29.589Z,97334.40
2022-08-03T11:49:07.818Z,97334.70
2022-08-03T11:51:40.083Z,97329.81
2022-08-03T11:54:08.117Z,97329.62
2022-08-03T11:56:48.170Z,97322.95
2022-08-03T11:59:21.751Z,97317.27
2022-08-03T12:01:51.368Z,97316.93
2022-08-03T12:04:19.240Z,97315.86
2022-08-03T12:07:00.491Z,97313.70
2022-08-03T12:09:28.487Z,97317.26
2022-08-03T12:12:00.452Z,97317.02
2022-08-03T12:14:49.816Z,97312.77
2022-08-03T12:17:19.114Z,97317.96
2022-08-03T12:19:47.461Z,97313.79
2022-08-03T12:22:16.967Z,97310.30
2022-08-03T12:24:46.915Z,97307.44
2022-08-03T12:27:29.987Z,97300.77
2022-08-03T12:30:01.912Z,97296.54
2022-08-03T12:32:30.540Z,97294.98
2022-08-03T12:35:01.866Z,97296.48
2022-08-03T12:37:30.695Z,97299.37
2022-08-03T12:40:07.944Z,97295.30
2022-08-03T12:42:39.388Z,97290.05
2022-08-03T12:45:24.421Z,97289.25
2022-08-03T12:47:52.251Z,97292.67
2022-08-03T12:50:33.795Z,97292.46
2022-08-03T12:53:03.278Z,97294.02
2022-08-03T12:55:57.285Z,97297.33
2022-08-03T12:58:29.791Z,97296.79
2022-08-03T13:00:57.713Z,97294.13
2022-08-03T13:03:39.220Z,97295.21
2022-08-03T13:06:14.213Z,97290.61
2022-08-03T13:08:42.901Z,97290.84
2022-08-03T13:11:52.596Z,97292.55
2022-08-03T13:14:13.516Z,97284.40
2022-08-03T13:16:44.898Z,97287.96
2022-08-03T13:19:15.411Z,97286.72
2022-08-03T13:21:53.595Z,97287.36
2022-08-03T13:24:33.466Z,97280.06
2022-08-03T13:27:21.942Z,97278.42
2022-08-03T13:29:51.121Z,97281.06
2022-08-03T13:32:19.015Z,97282.13
2022-08-03T13:34:46.961Z,97278.38
2022-08-03T13:37:15.202Z,97273.19
2022-08-03T13:39:57.545Z,97267.30
2022-08-03T13:42:29.280Z,97263.04
2022-08-03T13:45:02.308Z,97263.65
2022-08-03T13:47:30.387Z,97260.73
2022-08-03T13:50:02.771Z,97263.92
2022-08-03T13:52:32.500Z,97259.18
2022-08-03T13:55:01.059Z,97264.84
2022-08-03T13:58:05.171Z,97271.32
2022-08-03T14:00:27.513Z,97263.82
2022-08-03T14:03:03.784Z,97268.00
2022-08-03T14:05:33.904Z,97268.82
2022-08-03T14:08:04.090Z,97269.09
2022-08-03T14:10:34.268Z,97266.53
2022-08-03T14:13:02.271Z,97268.57
2022-08-03T14:15:30.274Z,97268.27
2022-08-03T14:17:58.921Z,97269.71
2022-08-03T14:20:38.798Z,97271.91
2022-08-03T14:23:15.461Z,97264.62
2022-08-03T14:25:50.142Z,97260.56
2022-08-03T14:28:19.188Z,97256.52
2022-08-03T14:30:48.085Z,97251.73
2022-08-03T14:33:16.032Z,97259.08
2022-08-03T14:35:44.235Z,97260.05
2022-08-03T14:38:12.029Z,97251.29
2022-08-03T14:40:39.931Z,97247.46
2022-08-03T14:43:07.958Z,97247.88
2022-08-03T14:45:36.142Z,97254.59
2022-08-03T14:50:32.766Z,97243.05
2022-08-03T14:50:55.335Z,97247.39
2022-08-03T14:53:23.498Z,97245.36
2022-08-03T14:55:53.053Z,97243.77
2022-08-03T14:58:22.016Z,97241.08
2022-08-03T15:00:51.297Z,97236.70
2022-08-03T15:03:25.000Z,97238.09
2022-08-03T15:05:54.478Z,97234.99
2022-08-03T15:08:23.276Z,97232.55
2022-08-03T15:10:51.668Z,97232.41
2022-08-03T15:13:19.907Z,97235.17
2022-08-03T15:15:48.519Z,97234.63
2022-08-03T15:18:16.476Z,97235.04
2022-08-03T15:20:46.381Z,97232.06
2022-08-03T15:23:15.885Z,97237.58
2022-08-03T15:26:32.120Z,97238.73
2022-08-03T15:28:32.738Z,97239.48
2022-08-03T15:31:01.285Z,97236.87
2022-08-03T15:33:29.319Z,97236.73
2022-08-03T15:35:57.401Z,97237.60
2022-08-03T15:38:26.181Z,97232.30
2022-08-03T15:40:55.161Z,97233.73
2022-08-03T15:43:23.964Z,97231.45
2022-08-03T15:46:12.792Z,97230.90
2022-08-03T15:48:40.548Z,97228.55
2022-08-03T15:51:08.733Z,97227.77
2022-08-03T15:53:37.237Z,97224.02
2022-08-03T15:56:12.147Z,97224.77
2022-08-03T15:59:11.352Z,97222.75
2022-08-03T16:01:30.771Z,97220.90
2022-08-03T16:03:58.882Z,97222.45
2022-08-03T16:06:34.934Z,97225.69
2022-08-03T16:09:23.494Z,97223.23
2022-08-03T16:11:58.261Z,97222.91
2022-08-03T16:14:34.381Z,97224.10
2022-08-03T16:17:05.996Z,97227.75
2022-08-03T16:19:33.879Z,97225.88
2022-08-03T16:22:03.618Z,97226.63
2022-08-03T16:24:31.981Z,97225.54
2022-08-03T16:27:00.497Z,97227.95
2022-08-03T16:29:29.679Z,97226.44
2022-08-03T16:31:57.617Z,97229.61
2022-08-03T16:34:26.285Z,97229.90
2022-08-03T16:36:56.586Z,97232.81
2022-08-03T16:39:24.698Z,97231.82
2022-08-03T16:41:53.835Z,97231.92
2022-08-03T16:44:30.840Z,97235.45
2022-08-03T16:46:59.380Z,97236.09
2022-08-03T16:49:53.713Z,97241.33
2022-08-03T16:52:16.468Z,97239.86
2022-08-03T16:54:53.224Z,97242.00
2022-08-03T16:57:56.660Z,97248.08
2022-08-03T17:00:33.792Z,97250.38
2022-08-03T17:03:04.808Z,97251.01
2022-08-03T17:05:49.624Z,97252.79
2022-08-03T17:08:27.192Z,97253.27
2022-08-03T17:10:55.933Z,97253.70
2022-08-03T17:13:27.828Z,97254.27
2022-08-03T17:16:09.631Z,97257.81
2022-08-03T17:18:39.228Z,97261.73
2022-08-03T17:21:13.877Z,97263.36
2022-08-03T17:24:00.841Z,97262.12
2022-08-03T17:26:34.611Z,97265.11
2022-08-03T17:29:11.267Z,97267.52
2022-08-03T17:31:48.907Z,97265.73
2022-08-03T17:34:18.906Z,97264.93
2022-08-03T17:37:04.747Z,97262.52
2022-08-03T17:42:32.132Z,97270.96
2022-08-03T17:45:03.822Z,97270.20
2022-08-03T17:47:42.033Z,97272.96
2022-08-03T17:50:23.929Z,97273.76
2022-08-03T17:53:07.277Z,97274.40
2022-08-03T17:55:57.534Z,97272.61
2022-08-03T17:58:53.743Z,97273.52
2022-08-03T18:01:59.634Z,97278.42
2022-08-03T18:04:33.952Z,97279.88
2022-08-03T18:07:11.600Z,97282.27
2022-08-03T18:10:04.047Z,97290.27
2022-08-03T18:12:51.698Z,97290.52
2022-08-03T18:15:34.864Z,97295.79
2022-08-03T18:18:10.460Z,97302.67
2022-08-03T18:20:41.929Z,97305.98
2022-08-03T18:23:24.772Z,97306.97
2022-08-03T18:26:01.699Z,97311.43
2022-08-03T18:28:29.814Z,97316.97
2022-08-03T18:30:58.115Z,97315.26
2022-08-03T18:34:19.922Z,97317.50
2022-08-03T18:36:29.664Z,97320.88
2022-08-03T18:39:00.068Z,97318.56
2022-08-03T18:41:32.067Z,97321.88
2022-08-03T18:44:08.185Z,97326.48
2022-08-03T18:46:46.434Z,97328.64
2022-08-03T18:49:25.386Z,97330.04
2022-08-03T18:52:05.177Z,97336.07
2022-08-03T18:55:02.572Z,97340.02
2022-08-03T18:58:03.579Z,97339.82
2022-08-03T19:00:54.408Z,97343.42
2022-08-03T19:03:23.619Z,97345.36
2022-08-03T19:06:13.407Z,97349.38
2022-08-03T19:08:48.270Z,97347.83
2022-08-03T19:11:28.744Z,97349.83
2022-08-03T19:14:20.780Z,97358.36
2022-08-03T19:17:00.120Z,97358.77
2022-08-03T19:19:43.526Z,97359.94
2022-08-03T19:22:19.690Z,97359.27
2022-08-03T19:24:49.309Z,97361.92
2022-08-03T19:27:17.711Z,97363.33
2022-08-03T19:29:57.914Z,97363.30
2022-08-03T19:32:29.851Z,97367.47
2022-08-03T19:34:59.667Z,97367.57
2022-08-03T19:37:38.172Z,97369.68
2022-08-03T19:40:10.866Z,97371.98
2022-08-03T19:42:44.745Z,97371.89
2022-08-03T19:45:17.662Z,97371.46
2022-08-03T19:47:47.550Z,97372.24
2022-08-03T19:50:19.256Z,97369.25
2022-08-03T19:52:49.793Z,97369.45
2022-08-03T19:55:18.332Z,97367.33
2022-08-03T19:57:49.404Z,97364.07
2022-08-03T20:00:26.481Z,97365.20
2022-08-03T20:02:55.600Z,97363.87
2022-08-03T20:05:23.955Z,97364.77
2022-08-03T20:07:55.153Z,97361.36
2022-08-03T20:10:24.337Z,97361.94
2022-08-03T20:12:52.403Z,97364.13
2022-08-03T20:15:30.835Z,97362.59
2022-08-03T20:18:00.350Z,97361.42
2022-08-03T20:20:30.294Z,97356.09
2022-08-03T20:22:59.221Z,97359.20
2022-08-03T20:25:38.137Z,97353.20
2022-08-03T20:28:13.502Z,97352.36
2022-08-03T20:30:44.053Z,97353.67
2022-08-03T20:33:12.584Z,97354.27
2022-08-03T20:35:49.033Z,97354.73
2022-08-03T20:38:19.125Z,97357.55
2022-08-03T20:40:47.723Z,97353.95
2022-08-03T20:43:16.399Z,97355.04
2022-08-03T20:45:59.651Z,97355.17
2022-08-03T20:48:34.947Z,97353.93
2022-08-03T20:51:19.738Z,97349.23
2022-08-03T20:53:57.271Z,97350.04
2022-08-03T20:56:35.149Z,97351.35
2022-08-03T20:59:05.167Z,97351.08
2022-08-03T21:01:35.973Z,97351.89
2022-08-03T21:04:09.260Z,97351.85
2022-08-03T21:07:01.918Z,97354.08
2022-08-03T21:09:41.599Z,97353.66
2022-08-03T21:13:13.253Z,97357.42
2022-08-03T21:15:04.574Z,97360.31
2022-08-03T21:17:41.867Z,97360.70
2022-08-03T21:20:11.863Z,97364.06
2022-08-03T21:22:42.929Z,97367.05
2022-08-03T21:25:14.264Z,97372.96
2022-08-03T21:27:42.281Z,97376.54
2022-08-03T21:30:11.435Z,97379.95
2022-08-03T21:32:42.054Z,97378.02
2022-08-03T21:35:10.745Z,97382.67
2022-08-03T21:37:40.084Z,97384.41
2022-08-03T21:40:09.385Z,97381.77
2022-08-03T21:42:37.719Z,97384.67
2022-08-03T21:45:07.440Z,97384.91
2022-08-03T21:47:39.412Z,97388.59
2022-08-03T21:50:09.928Z,97387.50
2022-08-03T21:52:42.348Z,97387.73
2022-08-03T21:55:20.872Z,97393.89
2022-08-03T21:57:51.591Z,97395.52
2022-08-03T22:00:22.065Z,97395.45
2022-08-03T22:02:55.746Z,97391.86
2022-08-03T22:05:29.142Z,97393.86
2022-08-03T22:08:13.428Z,97391.15
2022-08-03T22:10:43.619Z,97395.10
2022-08-03T22:13:17.595Z,97391.42
2022-08-03T22:15:47.821Z,97387.80
2022-08-03T22:18:16.200Z,97390.06
2022-08-03T22:20:49.499Z,97390.64
2022-08-03T22:23:21.355Z,97392.33
2022-08-03T22:25:52.012Z,97391.73
2022-08-03T22:28:22.272Z,97391.89
2022-08-03T22:30:51.846Z,97393.02
2022-08-03T22:33:19.791Z,97396.40
2022-08-03T22:35:49.629Z,97396.83
2022-08-03T22:38:18.871Z,97397.69
2022-08-03T22:40:48.361Z,97399.67
2022-08-03T22:43:16.605Z,97398.05
2022-08-03T22:46:10.513Z,97399.23
2022-08-03T22:48:34.847Z,97401.02
2022-08-03T22:51:03.464Z,97403.26
2022-08-03T22:53:31.336Z,97404.42
2022-08-03T22:55:59.180Z,97405.66
2022-08-03T22:58:27.038Z,97407.33
2022-08-03T23:00:56.364Z,97408.71
2022-08-03T23:03:25.469Z,97405.23
2022-08-03T23:06:14.536Z,97406.15
2022-08-03T23:08:44.344Z,97405.23
2022-08-03T23:11:13.375Z,97410.05
2022-08-03T23:13:41.459Z,97405.06
2022-08-03T23:16:09.822Z,97406.05
2022-08-03T23:18:39.834Z,97408.44
2022-08-03T23:21:11.136Z,97408.75
2022-08-03T23:23:44.173Z,97409.53
2022-08-03T23:26:13.459Z,97406.98
2022-08-03T23:28:45.292Z,97406.31
2022-08-03T23:31:14.355Z,97406.24
2022-08-03T23:33:44.659Z,97406.16
2022-08-03T23:36:31.023Z,97412.92
2022-08-03T23:39:02.461Z,97413.21
2022-08-03T23:41:33.466Z,97412.11
2022-08-03T23:44:03.740Z,97409.61
2022-08-03T23:46:32.837Z,97417.02
2022-08-03T23:49:00.715Z,97418.69
2022-08-03T23:51:31.431Z,97420.05
2022-08-03T23:54:18.181Z,97421.56
2022-08-03T23:56:53.115Z,97419.60
2022-08-03T23:59:39.547Z,97418.05
